Time;durP1;ratioP1;P1;durP2;ratioP2;P2;SDS_P1;SDS_P2;PMS_P1;PMS_P2;Temp;Humidity;BMP_temperature;BMP_pressure;BME280_temperature;BME280_humidity;BME280_pressure;Samples;Min_cycle;Max_cycle;Signal;HPM_P1;HPM_P2
2022/11/28 00:01:27;;;;;;;8.25;4.63;;;;;;;7.90;100.00;100869.75;4954729;28;20378;-51
2022/11/28 00:03:55;;;;;;;7.22;4.53;;;;;;;7.95;100.00;100872.53;4993173;28;20117;-52
2022/11/28 00:06:22;;;;;;;8.65;4.93;;;;;;;7.93;100.00;100871.97;4975020;28;20046;-53
2022/11/28 00:08:51;;;;;;;9.73;5.20;;;;;;;7.94;100.00;100868.19;4960038;28;20121;-52
2022/11/28 00:11:18;;;;;;;8.23;3.72;;;;;;;8.02;100.00;100861.50;4966545;28;20159;-51
2022/11/28 00:13:47;;;;;;;7.60;4.25;;;;;;;7.99;100.00;100868.25;4972932;28;20039;-54
2022/11/28 00:16:20;;;;;;;7.85;4.68;;;;;;;7.99;100.00;100860.13;4974579;28;20417;-52
2022/11/28 00:18:50;;;;;;;6.35;4.13;;;;;;;7.99;100.00;100857.41;4974412;28;20043;-52
2022/11/28 00:21:19;;;;;;;8.18;4.38;;;;;;;7.97;100.00;100859.53;4962149;28;20046;-52
2022/11/28 00:23:47;;;;;;;6.90;4.55;;;;;;;7.97;100.00;100854.13;4974529;28;20049;-53
2022/11/28 00:26:22;;;;;;;7.97;4.97;;;;;;;7.96;100.00;100860.63;4948614;28;20559;-52
2022/11/28 00:28:50;;;;;;;8.45;4.25;;;;;;;7.98;100.00;100858.47;4980213;28;20050;-50
2022/11/28 00:31:26;;;;;;;10.02;5.00;;;;;;;8.00;100.00;100853.63;4974531;28;20517;-49
2022/11/28 00:33:54;;;;;;;12.18;5.43;;;;;;;7.97;100.00;100856.84;4982770;28;20038;-49
2022/11/28 00:36:22;;;;;;;7.57;4.47;;;;;;;7.96;100.00;100857.91;4970784;28;20058;-51
2022/11/28 00:38:50;;;;;;;7.70;4.75;;;;;;;7.97;100.00;100847.88;4974307;28;20051;-53
2022/11/28 00:41:24;;;;;;;7.93;4.35;;;;;;;7.98;100.00;100850.31;4974302;28;20370;-52
2022/11/28 00:43:52;;;;;;;7.32;4.47;;;;;;;7.98;100.00;100850.31;4992405;28;20109;-50
2022/11/28 00:46:21;;;;;;;9.15;5.35;;;;;;;8.00;100.00;100840.03;4979949;28;20627;-49
2022/11/28 00:48:49;;;;;;;7.57;4.78;;;;;;;8.01;100.00;100843.56;4957482;28;20074;-50
2022/11/28 00:51:22;;;;;;;7.32;4.10;;;;;;;8.03;100.00;100846.88;4974094;28;20054;-51
2022/11/28 00:53:51;;;;;;;9.32;4.82;;;;;;;8.03;100.00;100842.28;4989926;28;20034;-48
2022/11/28 00:56:22;;;;;;;6.15;3.92;;;;;;;8.02;100.00;100843.34;4973945;28;20389;-47
2022/11/28 00:58:50;;;;;;;7.10;3.88;;;;;;;8.02;100.00;100840.63;4963129;28;20058;-48
2022/11/28 01:01:20;;;;;;;7.43;4.10;;;;;;;8.05;100.00;100839.28;4979483;28;20101;-53
2022/11/28 01:03:50;;;;;;;8.20;4.10;;;;;;;8.05;100.00;100831.16;4985388;28;20490;-49
2022/11/28 01:06:26;;;;;;;6.60;3.92;;;;;;;8.06;100.00;100836.34;4979847;28;20490;-52
2022/11/28 01:08:54;;;;;;;7.00;3.38;;;;;;;8.07;100.00;100824.41;4978106;28;20102;-52
2022/11/28 01:11:22;;;;;;;6.10;3.53;;;;;;;8.08;100.00;100817.06;4955380;28;20046;-53
2022/11/28 01:13:49;;;;;;;5.45;3.47;;;;;;;8.11;100.00;100833.69;4976753;28;20047;-51
2022/11/28 01:16:17;;;;;;;5.90;3.35;;;;;;;8.17;100.00;100828.34;4980720;28;20054;-51
2022/11/28 01:18:45;;;;;;;6.93;3.40;;;;;;;8.15;100.00;100822.31;4973102;28;20046;-49
2022/11/28 01:21:13;;;;;;;6.25;3.53;;;;;;;8.17;100.00;100825.63;4979049;28;20031;-51
2022/11/28 01:23:40;;;;;;;5.47;3.30;;;;;;;8.20;100.00;100828.66;4988358;28;20042;-49
2022/11/28 01:26:10;;;;;;;5.63;3.45;;;;;;;8.20;100.00;100820.53;4977301;28;20045;-50
2022/11/28 01:28:38;;;;;;;5.43;3.33;;;;;;;8.24;100.00;100821.63;4987920;28;20043;-49
2022/11/28 01:31:07;;;;;;;5.88;3.45;;;;;;;8.24;100.00;100827.06;4979781;28;20069;-49
2022/11/28 01:33:35;;;;;;;5.65;3.42;;;;;;;8.36;100.00;100832.38;4983249;28;20490;-51
2022/11/28 01:36:03;;;;;;;5.55;3.13;;;;;;;8.39;100.00;100829.13;4988244;28;20042;-52
2022/11/28 01:38:32;;;;;;;6.00;3.25;;;;;;;8.38;100.00;100826.69;4977321;28;20485;-50
2022/11/28 01:41:00;;;;;;;6.05;3.33;;;;;;;8.32;100.00;100833.94;4960529;28;20050;-50
2022/11/28 01:43:27;;;;;;;5.80;3.42;;;;;;;8.29;100.00;100835.25;4970160;28;20042;-50
2022/11/28 01:45:55;;;;;;;6.60;3.30;;;;;;;8.26;100.00;100830.34;4988305;28;20568;-50
2022/11/28 01:48:27;;;;;;;6.88;3.65;;;;;;;8.27;100.00;100825.72;4987517;28;20049;-52
2022/11/28 01:51:01;;;;;;;5.22;3.30;;;;;;;8.27;100.00;100825.72;4992372;28;20035;-52
2022/11/28 01:53:30;;;;;;;6.22;3.67;;;;;;;8.24;100.00;100827.06;4985903;28;20053;-50
2022/11/28 01:56:07;;;;;;;5.38;3.53;;;;;;;8.22;100.00;100829.22;4988938;28;20046;-52
2022/11/28 01:58:37;;;;;;;5.22;2.97;;;;;;;8.32;100.00;100823.09;4977264;28;20046;-49
2022/11/28 02:01:06;;;;;;;6.88;3.38;;;;;;;8.35;100.00;100828.03;4963206;28;20039;-52
2022/11/28 02:03:42;;;;;;;6.22;3.40;;;;;;;8.36;100.00;100823.41;4981280;28;20130;-50
2022/11/28 02:06:12;;;;;;;5.68;3.17;;;;;;;8.34;100.00;100826.38;4988919;28;20039;-52
2022/11/28 02:08:39;;;;;;;6.13;3.28;;;;;;;8.37;100.00;100819.59;4968860;28;20097;-53
2022/11/28 02:11:37;;;;;;;4.90;3.30;;;;;;;8.30;100.00;100825.25;4981009;28;20077;-49
2022/11/28 02:14:26;;;;;;;6.65;3.55;;;;;;;8.27;100.00;100820.31;4971614;28;20108;-51
2022/11/28 02:17:22;;;;;;;6.72;3.92;;;;;;;8.23;100.00;100811.06;4976601;28;20055;-52
2022/11/28 02:20:28;;;;;;;5.22;3.50;;;;;;;8.23;100.00;100813.75;4972218;28;20495;-49
2022/11/28 02:23:13;;;;;;;5.40;3.00;;;;;;;8.22;100.00;100812.09;4976689;28;20509;-51
2022/11/28 02:26:06;;;;;;;5.22;3.33;;;;;;;8.23;100.00;100808.34;4969001;28;20065;-48
2022/11/28 02:28:43;;;;;;;6.10;3.58;;;;;;;8.22;100.00;100802.06;4978398;28;20034;-51
2022/11/28 02:31:20;;;;;;;7.15;3.58;;;;;;;8.24;100.00;100801.81;4978804;28;20050;-53
2022/11/28 02:33:59;;;;;;;5.00;3.25;;;;;;;8.23;100.00;100808.34;4991570;28;20051;-49
2022/11/28 02:36:46;;;;;;;6.20;3.60;;;;;;;8.23;100.00;100797.47;4970732;28;20057;-48
2022/11/28 02:39:21;;;;;;;6.65;3.63;;;;;;;8.23;100.00;100794.75;4989047;28;20054;-50
2022/11/28 02:42:21;;;;;;;5.65;3.50;;;;;;;8.21;100.00;100799.63;5006974;28;20378;-49
2022/11/28 02:44:59;;;;;;;5.45;3.30;;;;;;;8.20;100.00;100797.97;4990506;28;20046;-53
2022/11/28 02:47:32;;;;;;;4.53;2.97;;;;;;;8.21;100.00;100805.06;4994825;28;20046;-50
2022/11/28 02:50:20;;;;;;;5.03;2.97;;;;;;;8.22;100.00;100795.81;4974539;28;20051;-50
2022/11/28 02:52:58;;;;;;;4.65;3.03;;;;;;;8.25;100.00;100801.56;4976096;28;20038;-51
2022/11/28 02:55:26;;;;;;;6.55;3.17;;;;;;;8.26;100.00;100794.25;4958894;28;20050;-55
2022/11/28 02:57:54;;;;;;;6.38;3.20;;;;;;;8.25;100.00;100800.72;4972672;28;20043;-54
2022/11/28 03:00:28;;;;;;;4.68;2.55;;;;;;;8.26;100.00;100795.06;4958656;28;20391;-54
2022/11/28 03:03:19;;;;;;;4.05;2.70;;;;;;;8.27;100.00;100798.59;4989639;28;20117;-53
2022/11/28 03:05:58;;;;;;;4.63;2.63;;;;;;;8.26;100.00;100796.97;4990174;28;20401;-49
2022/11/28 03:08:50;;;;;;;4.43;2.90;;;;;;;8.24;100.00;100797.22;4974115;28;20051;-51
2022/11/28 03:11:27;;;;;;;4.72;2.80;;;;;;;8.25;100.00;100789.88;4990213;28;20220;-55
2022/11/28 03:13:56;;;;;;;;;;;;;;;8.24;100.00;100783.63;4983531;28;20046;-53
2022/11/28 03:16:27;;;;;;;5.90;2.92;;;;;;;8.22;100.00;100790.38;4974243;28;19922;-53
2022/11/28 03:19:13;;;;;;;4.22;2.95;;;;;;;8.21;100.00;100783.34;4983435;28;20069;-50
2022/11/28 03:21:51;;;;;;;4.57;2.80;;;;;;;8.20;100.00;100785.25;4985307;28;20401;-51
2022/11/28 03:24:24;;;;;;;6.55;3.25;;;;;;;8.21;100.00;100786.06;4982293;28;20059;-51
2022/11/28 03:27:04;;;;;;;5.25;3.05;;;;;;;8.19;100.00;100789.00;4997946;28;20042;-54
2022/11/28 03:29:39;;;;;;;6.88;3.17;;;;;;;8.17;100.00;100791.16;5010891;28;20054;-54
2022/11/28 03:32:11;;;;;;;5.93;3.20;;;;;;;8.17;100.00;100787.63;4984647;28;20042;-52
2022/11/28 03:34:43;;;;;;;4.32;2.80;;;;;;;8.15;100.00;100789.75;4979751;28;20051;-48
2022/11/28 03:37:14;;;;;;;4.10;3.03;;;;;;;8.15;100.00;100795.19;4997391;28;20390;-50
2022/11/28 03:39:47;;;;;;;5.82;2.88;;;;;;;8.16;100.00;100788.72;4990384;28;20121;-48
2022/11/28 03:42:21;;;;;;;6.05;3.10;;;;;;;8.17;100.00;100793.03;5005795;28;20042;-50
2022/11/28 03:44:57;;;;;;;6.40;3.10;;;;;;;8.18;100.00;100790.09;4993157;28;20527;-48
2022/11/28 03:47:27;;;;;;;6.63;3.30;;;;;;;8.23;100.00;100784.72;5014088;28;20046;-49
2022/11/28 03:49:56;;;;;;;5.63;3.17;;;;;;;8.19;100.00;100786.28;4982912;28;20060;-52
2022/11/28 03:52:31;;;;;;;5.13;2.97;;;;;;;8.19;100.00;100785.47;4975352;28;20094;-54
2022/11/28 03:55:06;;;;;;;4.93;3.00;;;;;;;8.20;100.00;100787.09;4977369;28;20073;-51
2022/11/28 03:57:49;;;;;;;4.82;3.00;;;;;;;8.18;100.00;100778.41;4976452;28;20047;-52
2022/11/28 04:00:17;;;;;;;4.75;3.25;;;;;;;8.21;100.00;100783.34;4970065;28;20045;-50
2022/11/28 04:03:16;;;;;;;5.60;3.10;;;;;;;8.20;100.00;100787.09;4977751;28;20504;-53
2022/11/28 04:05:53;;;;;;;3.58;2.85;;;;;;;8.21;100.00;100788.75;4971306;28;20039;-51
2022/11/28 04:08:26;;;;;;;5.03;2.95;;;;;;;8.19;100.00;100780.88;4969849;28;20069;-51
2022/11/28 04:11:08;;;;;;;4.63;3.15;;;;;;;8.18;100.00;100783.81;4970569;28;20035;-52
2022/11/28 04:14:03;;;;;;;4.03;2.65;;;;;;;8.18;100.00;100791.97;4973614;28;20077;-53
2022/11/28 04:16:35;;;;;;;5.30;3.22;;;;;;;8.22;100.00;100793.09;5004317;28;20054;-54
2022/11/28 04:19:10;;;;;;;5.20;2.67;;;;;;;8.20;100.00;100787.94;4996411;28;20046;-53
2022/11/28 04:22:15;;;;;;;6.20;3.47;;;;;;;8.22;100.00;100784.97;4997351;28;20058;-53
2022/11/28 04:24:50;;;;;;;5.18;3.03;;;;;;;8.18;100.00;100783.81;5002076;28;20050;-53
2022/11/28 04:27:22;;;;;;;5.65;3.00;;;;;;;8.19;100.00;100782.75;4975253;28;20065;-53
2022/11/28 04:29:54;;;;;;;4.80;2.72;;;;;;;8.20;100.00;100782.53;5007417;28;20050;-50
2022/11/28 04:32:23;;;;;;;3.85;2.67;;;;;;;8.19;100.00;100789.00;4994262;28;20089;-53
2022/11/28 04:34:58;;;;;;;5.38;2.95;;;;;;;8.18;100.00;100786.53;4998498;28;20050;-49
2022/11/28 04:37:27;;;;;;;6.15;3.20;;;;;;;8.16;100.00;100792.22;4970269;28;20069;-50
2022/11/28 04:39:55;;;;;;;4.00;2.88;;;;;;;8.17;100.00;100793.03;5006841;28;20030;-52
2022/11/28 04:42:29;;;;;;;5.45;3.40;;;;;;;8.16;100.00;100789.53;4998402;28;20519;-50
2022/11/28 04:45:07;;;;;;;4.88;3.20;;;;;;;8.16;100.00;100781.38;4955328;28;20046;-49
2022/11/28 04:47:34;;;;;;;5.53;3.35;;;;;;;8.16;100.00;100786.00;4999671;28;20451;-52
2022/11/28 04:50:02;;;;;;;4.57;3.00;;;;;;;8.16;100.00;100786.81;4989063;28;20046;-52
2022/11/28 04:52:34;;;;;;;4.90;3.00;;;;;;;8.16;100.00;100786.00;4962595;28;20046;-50
2022/11/28 04:55:30;;;;;;;4.72;2.95;;;;;;;8.17;100.00;100784.91;4973835;28;20042;-52
2022/11/28 04:58:15;;;;;;;4.65;3.10;;;;;;;8.16;100.00;100789.53;4979978;28;20039;-49
2022/11/28 05:00:44;;;;;;;4.15;2.67;;;;;;;8.16;100.00;100781.38;4974251;28;20445;-54
2022/11/28 05:03:12;;;;;;;4.57;2.80;;;;;;;8.17;100.00;100784.91;4963370;28;20505;-51
2022/11/28 05:05:46;;;;;;;4.45;3.00;;;;;;;8.17;100.00;100783.00;4975218;28;20038;-50
2022/11/28 05:08:14;;;;;;;3.78;2.58;;;;;;;8.16;100.00;100791.41;4973957;28;20094;-52
2022/11/28 05:10:41;;;;;;;4.70;3.17;;;;;;;8.18;100.00;100795.53;4958780;28;20047;-53
2022/11/28 05:13:09;;;;;;;4.80;3.20;;;;;;;8.15;100.00;100798.72;4978958;28;20042;-52
2022/11/28 05:15:37;;;;;;;6.63;3.47;;;;;;;8.11;100.00;100795.69;4987413;28;20097;-50
2022/11/28 05:18:05;;;;;;;5.40;3.42;;;;;;;8.10;100.00;100804.09;4984624;28;20054;-50
2022/11/28 05:20:33;;;;;;;6.18;3.30;;;;;;;8.07;100.00;100794.56;4989642;28;20899;-51
2022/11/28 05:23:00;;;;;;;3.40;2.72;;;;;;;8.12;100.00;100799.22;4998905;28;20068;-48
2022/11/28 05:25:28;;;;;;;4.13;2.33;;;;;;;8.21;100.00;100796.91;4993024;28;20039;-50
2022/11/28 05:27:56;;;;;;;4.68;2.83;;;;;;;8.27;100.00;100798.59;4974960;28;20113;-51
2022/11/28 05:30:23;;;;;;;3.85;2.80;;;;;;;8.24;100.00;100805.34;4968503;28;20050;-49
2022/11/28 05:32:51;;;;;;;4.38;3.10;;;;;;;8.26;100.00;100807.81;4990736;28;20052;-52
2022/11/28 05:35:19;;;;;;;4.43;2.80;;;;;;;8.25;100.00;100808.88;4963414;28;20062;-48
2022/11/28 05:37:46;;;;;;;3.65;2.40;;;;;;;8.27;100.00;100807.59;4962855;28;20050;-50
2022/11/28 05:40:14;;;;;;;3.45;2.45;;;;;;;8.28;100.00;100808.41;4934037;29;20032;-51
2022/11/28 05:42:42;;;;;;;3.47;2.45;;;;;;;8.42;100.00;100812.41;4962490;28;20475;-51
2022/11/28 05:45:09;;;;;;;4.13;2.63;;;;;;;8.41;100.00;100815.34;4969688;28;20517;-52
2022/11/28 05:47:37;;;;;;;5.47;2.90;;;;;;;8.35;100.00;100809.03;4973368;28;20097;-49
2022/11/28 05:50:05;;;;;;;4.25;2.47;;;;;;;8.40;100.00;100813.72;4948958;28;20050;-49
2022/11/28 05:52:33;;;;;;;3.80;2.55;;;;;;;8.35;100.00;100811.75;4276078;28;10000088;-49
2022/11/28 05:55:00;;;;;;;4.00;2.42;;;;;;;8.38;100.00;100811.22;4970344;28;20046;-49
2022/11/28 05:57:28;;;;;;;5.25;3.10;;;;;;;8.37;100.00;100809.59;4973547;28;20050;-49
2022/11/28 05:59:56;;;;;;;3.70;2.78;;;;;;;8.35;100.00;100809.03;4957515;28;20051;-50
2022/11/28 06:02:24;;;;;;;3.38;2.70;;;;;;;8.35;100.00;100800.88;4965831;28;20413;-51
2022/11/28 06:04:52;;;;;;;3.97;2.78;;;;;;;8.31;100.00;100807.88;4966229;28;20035;-49
2022/11/28 06:07:19;;;;;;;4.97;2.88;;;;;;;8.30;100.00;100804.34;4969703;28;20148;-49
2022/11/28 06:09:47;;;;;;;4.50;2.70;;;;;;;8.33;100.00;100798.41;4963516;28;20568;-50
2022/11/28 06:12:15;;;;;;;4.47;2.63;;;;;;;8.38;100.00;100804.97;4952832;29;20869;-51
2022/11/28 06:14:42;;;;;;;4.68;2.72;;;;;;;8.38;100.00;100800.38;4959765;28;20117;-52
2022/11/28 06:17:10;;;;;;;3.15;2.45;;;;;;;8.40;100.00;100806.41;4973050;28;20057;-49
2022/11/28 06:19:37;;;;;;;4.65;2.85;;;;;;;8.38;100.00;100803.06;4959207;28;20035;-50
2022/11/28 06:22:05;;;;;;;7.05;2.70;;;;;;;8.41;100.00;100808.03;4963645;28;20062;-51
2022/11/28 06:24:33;;;;;;;4.80;2.50;;;;;;;8.41;100.00;100810.75;4962443;28;20062;-50
2022/11/28 06:27:00;;;;;;;6.47;2.45;;;;;;;8.45;100.00;100806.44;4963696;28;20061;-49
2022/11/28 06:29:28;;;;;;;3.60;2.47;;;;;;;8.44;100.00;100807.53;4958362;28;20205;-50
2022/11/28 06:31:55;;;;;;;3.03;2.47;;;;;;;8.41;100.00;100813.44;4959987;28;20043;-52
2022/11/28 06:34:23;;;;;;;2.80;2.47;;;;;;;8.39;100.00;100818.28;4976087;28;20058;-52
2022/11/28 06:36:51;;;;;;;3.97;2.20;;;;;;;8.48;100.00;100821.41;5011923;28;20132;-52
2022/11/28 06:39:19;;;;;;;3.15;2.67;;;;;;;8.40;100.00;100825.41;5005806;28;20038;-52
2022/11/28 06:41:46;;;;;;;4.07;3.00;;;;;;;8.38;100.00;100826.69;5001578;28;20038;-49
2022/11/28 06:44:15;;;;;;;5.10;2.92;;;;;;;8.36;100.00;100826.94;5005594;28;20519;-51
2022/11/28 06:46:43;;;;;;;5.18;2.90;;;;;;;8.36;100.00;100829.66;4952963;28;20046;-49
2022/11/28 06:49:11;;;;;;;4.63;2.70;;;;;;;8.32;100.00;100826.63;4992671;28;20042;-49
2022/11/28 06:51:40;;;;;;;4.03;2.53;;;;;;;8.38;100.00;100822.09;4975742;28;20039;-51
2022/11/28 06:54:08;;;;;;;4.90;2.83;;;;;;;8.35;100.00;100821.78;4974047;28;20053;-51
2022/11/28 06:56:35;;;;;;;4.88;2.63;;;;;;;8.40;100.00;100830.84;4978252;28;20042;-50
2022/11/28 06:59:03;;;;;;;4.43;2.70;;;;;;;8.37;100.00;100825.03;4970395;28;20049;-48
2022/11/28 07:01:31;;;;;;;6.60;3.10;;;;;;;8.33;100.00;100830.97;4997641;28;20133;-53
2022/11/28 07:03:59;;;;;;;3.45;2.70;;;;;;;8.31;100.00;100832.31;4997093;28;20109;-48
2022/11/28 07:06:27;;;;;;;3.83;2.72;;;;;;;8.29;100.00;100831.75;4993168;28;20093;-52
2022/11/28 07:08:58;;;;;;;3.85;2.72;;;;;;;8.30;100.00;100830.69;5010521;28;20046;-50
2022/11/28 07:11:28;;;;;;;6.07;2.97;;;;;;;8.30;100.00;100836.13;5007854;28;20049;-52
2022/11/28 07:13:57;;;;;;;3.17;2.70;;;;;;;8.29;100.00;100826.31;5014417;28;20038;-51
2022/11/28 07:16:27;;;;;;;4.22;2.90;;;;;;;8.30;100.00;100836.13;4996729;28;20084;-49
2022/11/28 07:18:55;;;;;;;4.68;2.95;;;;;;;8.28;100.00;100832.81;4999868;28;20042;-50
2022/11/28 07:21:23;;;;;;;5.63;3.38;;;;;;;8.27;100.00;100832.00;5009408;28;20045;-50
2022/11/28 07:23:52;;;;;;;4.85;2.80;;;;;;;8.29;100.00;100824.41;5010332;28;20069;-48
2022/11/28 07:26:20;;;;;;;4.63;3.05;;;;;;;8.27;100.00;100836.59;5014250;28;20034;-47
2022/11/28 07:28:49;;;;;;;5.07;3.10;;;;;;;8.27;100.00;100836.59;4985078;28;20050;-49
2022/11/28 07:31:30;;;;;;;4.57;2.83;;;;;;;8.32;100.00;100837.50;4999351;28;20094;-50
2022/11/28 07:34:00;;;;;;;4.38;3.00;;;;;;;8.31;100.00;100835.03;4995005;28;20112;-53
2022/11/28 07:36:29;;;;;;;4.38;3.20;;;;;;;8.31;100.00;100851.31;4980490;28;20499;-48
2022/11/28 07:38:58;;;;;;;3.92;2.92;;;;;;;8.33;100.00;100847.28;5001032;28;20050;-51
2022/11/28 07:41:26;;;;;;;3.50;2.90;;;;;;;8.33;100.00;100849.97;5013044;28;20084;-47
2022/11/28 07:43:56;;;;;;;5.60;3.10;;;;;;;8.33;100.00;100844.56;5011045;28;20092;-49
2022/11/28 07:46:25;;;;;;;6.07;2.92;;;;;;;8.41;100.00;100846.03;4996607;28;20041;-55
2022/11/28 07:48:53;;;;;;;5.15;3.28;;;;;;;8.39;100.00;100855.47;4985968;28;20058;-52
2022/11/28 07:51:23;;;;;;;5.57;3.20;;;;;;;8.35;100.00;100855.19;4974787;28;20051;-50
2022/11/28 07:53:51;;;;;;;7.07;3.38;;;;;;;8.33;100.00;100860.03;4980986;28;20117;-49
2022/11/28 07:56:25;;;;;;;5.68;3.50;;;;;;;8.31;100.00;100854.03;4981224;28;20046;-50
2022/11/28 07:59:06;;;;;;;5.70;3.60;;;;;;;8.30;100.00;100863.25;4986599;28;20065;-50
2022/11/28 08:01:35;;;;;;;5.60;3.33;;;;;;;8.32;100.00;100866.50;4994280;28;20113;-52
2022/11/28 08:04:06;;;;;;;5.32;3.70;;;;;;;8.31;100.00;100873.03;4981576;28;20047;-49
2022/11/28 08:06:39;;;;;;;5.53;3.88;;;;;;;8.29;100.00;100869.75;4974270;28;20040;-51
2022/11/28 08:09:07;;;;;;;6.88;3.55;;;;;;;8.27;100.00;100872.72;4978726;28;20039;-48
2022/11/28 08:11:35;;;;;;;6.28;4.05;;;;;;;8.27;100.00;100878.16;4961434;28;20039;-50
2022/11/28 08:14:04;;;;;;;6.80;4.15;;;;;;;8.26;100.00;100867.53;4975256;28;20517;-49
2022/11/28 08:16:31;;;;;;;6.95;4.15;;;;;;;8.26;100.00;100868.34;4964217;28;20094;-50
2022/11/28 08:19:02;;;;;;;7.15;4.40;;;;;;;8.24;100.00;100870.50;4972716;28;20043;-51
2022/11/28 08:21:31;;;;;;;7.68;3.67;;;;;;;8.25;100.00;100871.31;4974698;28;20053;-50
2022/11/28 08:24:00;;;;;;;8.10;4.07;;;;;;;8.27;100.00;100866.44;4967645;28;20044;-52
2022/11/28 08:26:29;;;;;;;6.93;3.90;;;;;;;8.29;100.00;100875.16;4976407;28;20038;-49
2022/11/28 08:29:02;;;;;;;6.22;3.60;;;;;;;8.37;100.00;100876.63;4974087;28;20043;-49
2022/11/28 08:31:35;;;;;;;7.97;4.35;;;;;;;8.38;100.00;100868.22;4970859;28;20043;-47
2022/11/28 08:34:05;;;;;;;5.93;3.33;;;;;;;8.42;100.00;100874.84;4983963;28;20069;-48
2022/11/28 08:36:33;;;;;;;6.25;3.25;;;;;;;8.45;100.00;100878.94;4995747;28;20041;-49
2022/11/28 08:39:01;;;;;;;6.47;3.47;;;;;;;8.44;100.00;100880.84;5010055;28;20503;-49
2022/11/28 08:41:49;;;;;;;6.90;3.80;;;;;;;8.40;100.00;100879.69;5002198;28;20462;-49
2022/11/28 08:44:17;;;;;;;18.52;6.38;;;;;;;8.44;100.00;100888.16;4990665;28;20045;-47
2022/11/28 08:46:44;;;;;;;11.13;4.97;;;;;;;8.42;100.00;100882.16;4976537;28;20038;-50
2022/11/28 08:49:12;;;;;;;11.82;5.10;;;;;;;8.43;100.00;100881.91;4987807;28;20046;-47
2022/11/28 08:51:39;;;;;;;10.23;4.85;;;;;;;8.46;100.00;100886.81;4974009;28;20049;-51
2022/11/28 08:54:07;;;;;;;10.43;4.28;;;;;;;8.47;100.00;100885.75;4975824;28;20090;-50
2022/11/28 08:56:35;;;;;;;6.45;3.67;;;;;;;8.46;100.00;100884.09;4989719;28;20104;-48
2022/11/28 08:59:03;;;;;;;9.88;4.40;;;;;;;8.47;100.00;100883.06;4975005;28;20039;-47
2022/11/28 09:01:31;;;;;;;9.43;4.00;;;;;;;8.45;100.00;100887.91;4997885;28;20041;-46
2022/11/28 09:03:59;;;;;;;9.43;4.65;;;;;;;8.50;100.00;100882.53;5013408;28;20042;-48
2022/11/28 09:06:26;;;;;;;12.88;4.80;;;;;;;8.52;100.00;100887.72;5008172;28;20069;-46
2022/11/28 09:08:54;;;;;;;9.30;5.20;;;;;;;8.49;100.00;100891.78;4980639;28;20049;-47
2022/11/28 09:11:22;;;;;;;6.63;3.80;;;;;;;8.49;100.00;100889.06;5007793;28;20053;-48
2022/11/28 09:13:50;;;;;;;7.80;3.83;;;;;;;8.49;100.00;100886.34;4995316;28;20042;-49
2022/11/28 09:16:18;;;;;;;6.07;3.40;;;;;;;8.49;100.00;100889.06;4992153;28;20038;-48
2022/11/28 09:18:45;;;;;;;6.68;3.88;;;;;;;8.49;100.00;100890.94;5000066;28;20080;-49
2022/11/28 09:21:14;;;;;;;5.35;3.70;;;;;;;8.48;100.00;100895.53;5012704;28;20045;-49
2022/11/28 09:23:43;;;;;;;8.57;4.55;;;;;;;8.49;100.00;100899.91;4995201;28;20049;-48
2022/11/28 09:26:21;;;;;;;6.95;4.20;;;;;;;8.49;100.00;100899.06;5012590;28;20046;-50
2022/11/28 09:28:49;;;;;;;5.75;3.80;;;;;;;8.47;100.00;100893.91;5000411;28;20038;-47
2022/11/28 09:31:18;;;;;;;8.68;3.95;;;;;;;8.50;100.00;100906.97;4999086;28;20050;-47
2022/11/28 09:33:47;;;;;;;15.32;8.40;;;;;;;8.53;100.00;100901.03;4983194;28;20042;-49
2022/11/28 09:36:20;;;;;;;13.77;5.70;;;;;;;8.61;100.00;100893.50;4999602;28;20058;-51
2022/11/28 09:38:48;;;;;;;17.30;11.63;;;;;;;8.61;100.00;100909.81;5003733;28;20120;-53
2022/11/28 09:41:54;;;;;;;6.90;4.70;;;;;;;8.59;100.00;100901.13;4990541;28;20050;-52
2022/11/28 09:44:40;;;;;;;8.30;4.25;;;;;;;8.57;100.00;100895.94;5017248;28;20064;-51
2022/11/28 09:47:35;;;;;;;;;;;;;;;8.62;100.00;100909.56;4986986;28;20038;-49
2022/11/28 09:50:13;;;;;;;8.73;4.40;;;;;;;8.58;100.00;100903.00;4986403;28;20281;-48
2022/11/28 09:52:59;;;;;;;5.53;3.90;;;;;;;8.58;100.00;100913.03;4972974;28;20046;-47
2022/11/28 09:56:03;;;;;;;8.93;4.20;;;;;;;8.65;100.00;100908.25;4977205;28;20137;-51
2022/11/28 09:58:54;;;;;;;6.50;3.85;;;;;;;8.63;100.00;100915.81;4971999;28;20050;-49
2022/11/28 10:01:34;;;;;;;9.73;4.28;;;;;;;8.64;100.00;100914.75;4967954;28;20046;-47
2022/11/28 10:04:10;;;;;;;7.50;4.35;;;;;;;8.64;100.00;100914.75;4981443;28;20038;-49
2022/11/28 10:06:59;;;;;;;7.13;4.80;;;;;;;8.65;100.00;100908.25;4966956;28;20412;-49
2022/11/28 10:09:45;;;;;;;9.18;5.15;;;;;;;8.67;100.00;100906.09;4978972;28;20046;-51
2022/11/28 10:12:19;;;;;;;;;;;;;;;8.71;100.00;100907.25;4956513;28;20038;-52
2022/11/28 10:15:10;;;;;;;7.30;4.13;;;;;;;8.71;100.00;100907.25;4976753;28;19976;-49
2022/11/28 10:17:44;;;;;;;9.30;4.55;;;;;;;8.73;100.00;100915.94;4973684;28;20552;-50
2022/11/28 10:20:30;;;;;;;8.23;4.40;;;;;;;8.73;100.00;100905.91;4987936;28;20508;-53
2022/11/28 10:23:00;;;;;;;7.78;4.72;;;;;;;8.74;100.00;100906.72;4976006;28;20370;-48
2022/11/28 10:25:36;;;;;;;8.30;4.22;;;;;;;8.75;100.00;100902.91;4978280;28;20492;-48
2022/11/28 10:28:17;;;;;;;8.85;4.28;;;;;;;8.73;100.00;100905.06;4986623;28;20409;-50
2022/11/28 10:30:53;;;;;;;6.40;3.90;;;;;;;8.73;100.00;100905.91;4969869;28;20457;-51
2022/11/28 10:33:39;;;;;;;5.85;3.95;;;;;;;8.73;100.00;100908.63;4985902;28;20069;-49
2022/11/28 10:36:33;;;;;;;5.72;4.18;;;;;;;8.73;100.00;100899.63;4978430;28;20505;-49
2022/11/28 10:39:08;;;;;;;7.75;4.03;;;;;;;8.74;100.00;100906.72;4986074;28;20038;-52
2022/11/28 10:42:10;;;;;;;6.22;4.05;;;;;;;8.76;100.00;100910.03;4989324;28;20385;-49
2022/11/28 10:44:47;;;;;;;5.28;3.50;;;;;;;8.76;100.00;100904.59;4999848;28;20046;-51
2022/11/28 10:47:40;;;;;;;5.22;3.92;;;;;;;8.76;100.00;100906.50;5013669;28;20041;-50
2022/11/28 10:50:13;;;;;;;6.88;3.92;;;;;;;8.79;100.00;100905.97;4990480;28;20050;-51
2022/11/28 10:52:50;;;;;;;6.22;3.80;;;;;;;8.78;100.00;100909.75;4976451;28;20490;-52
2022/11/28 10:55:43;;;;;;;8.60;5.68;;;;;;;8.77;100.00;100916.25;4968838;28;20532;-49
2022/11/28 10:58:23;;;;;;;7.13;4.63;;;;;;;8.73;100.00;100908.63;4983211;28;20034;-49
2022/11/28 11:00:56;;;;;;;6.53;4.22;;;;;;;8.71;100.00;100912.69;4997661;28;20042;-50
2022/11/28 11:03:27;;;;;;;7.80;5.00;;;;;;;8.69;100.00;100914.81;4993989;28;20045;-49
2022/11/28 11:05:55;;;;;;;6.70;4.78;;;;;;;8.67;100.00;100912.34;4978929;28;20050;-51
2022/11/28 11:08:25;;;;;;;6.32;4.43;;;;;;;8.70;100.00;100911.03;4982838;28;20123;-48
2022/11/28 11:11:07;;;;;;;7.55;5.28;;;;;;;8.74;100.00;100906.72;4997477;28;20116;-51
2022/11/28 11:13:54;;;;;;;8.82;5.20;;;;;;;8.73;100.00;100905.06;4997946;28;20144;-50
2022/11/28 11:16:22;;;;;;;7.38;4.97;;;;;;;8.72;100.00;100901.53;4987711;28;20066;-53
2022/11/28 11:18:53;;;;;;;9.52;5.25;;;;;;;8.73;100.00;100905.06;4992168;28;20101;-51
2022/11/28 11:21:25;;;;;;;7.35;4.80;;;;;;;8.75;100.00;100902.91;5014467;28;20038;-50
2022/11/28 11:24:15;;;;;;;12.07;6.50;;;;;;;8.80;100.00;100913.84;4997037;28;20388;-48
2022/11/28 11:26:46;;;;;;;15.77;6.95;;;;;;;8.82;100.00;100911.69;4967281;28;20042;-48
2022/11/28 11:29:40;;;;;;;8.98;5.50;;;;;;;8.82;100.00;100903.56;4977526;28;20448;-50
2022/11/28 11:32:28;;;;;;;9.57;5.07;;;;;;;8.84;100.00;100901.41;5000048;28;20047;-53
2022/11/28 11:34:56;;;;;;;16.08;8.70;;;;;;;8.89;100.00;100904.19;4967561;28;20400;-52
2022/11/28 11:37:36;;;;;;;15.02;7.25;;;;;;;8.92;100.00;100909.13;4994873;28;20054;-51
2022/11/28 11:40:24;;;;;;;8.93;6.10;;;;;;;8.90;100.00;100905.84;5005744;28;20402;-46
2022/11/28 11:42:59;;;;;;;13.35;7.63;;;;;;;8.94;100.00;100904.22;4306242;28;9999830;-50
2022/11/28 11:45:31;;;;;;;13.35;7.45;;;;;;;9.01;100.00;100911.38;5011007;28;20046;-48
2022/11/28 11:47:59;;;;;;;11.43;7.55;;;;;;;8.99;100.00;100906.19;4998918;28;20041;-50
2022/11/28 11:50:29;;;;;;;12.45;7.32;;;;;;;9.00;100.00;100909.75;4976448;28;20052;-48
2022/11/28 11:53:12;;;;;;;12.88;7.55;;;;;;;8.99;100.00;100914.34;4946690;28;20050;-49